Time;durP1;ratioP1;P1;durP2;ratioP2;P2;SDS_P1;SDS_P2;PMS_P1;PMS_P2;Temp;Humidity;BMP_temperature;BMP_pressure;BME280_temperature;BME280_humidity;BME280_pressure;Samples;Min_cycle;Max_cycle;Signal;HPM_P1;HPM_P2
2021/01/30 18:04:58;;;;;;;127.07;72.25;;;13.20;70.20;;;;;;5151784;27;20440;-66
2021/01/30 18:07:24;;;;;;;133.95;72.95;;;11.50;75.90;;;;;;5133639;27;20034;-65
2021/01/30 18:09:50;;;;;;;135.98;70.38;;;11.10;77.30;;;;;;5150755;27;20110;-66
2021/01/30 18:12:16;;;;;;;129.93;71.15;;;10.90;77.90;;;;;;5133172;27;20098;-64
2021/01/30 18:14:42;;;;;;;114.63;62.42;;;10.80;78.60;;;;;;5116234;27;20459;-64
2021/01/30 18:17:09;;;;;;;135.52;67.82;;;11.10;96.20;;;;;;5133702;27;20379;-64
2021/01/30 18:19:39;;;;;;;117.10;65.13;;;11.50;87.10;;;;;;5133620;27;20091;-64
2021/01/30 18:22:05;;;;;;;119.20;64.55;;;11.20;78.40;;;;;;5147132;27;20463;-65
2021/01/30 18:24:53;;;;;;;114.85;59.17;;;10.90;78.60;;;;;;5130612;27;20040;-65
2021/01/30 18:27:23;;;;;;;92.85;51.35;;;10.70;79.30;;;;;;5116701;27;20080;-67
2021/01/30 18:29:49;;;;;;;82.63;45.63;;;10.50;79.80;;;;;;5133678;27;20023;-70
2021/01/30 18:32:15;;;;;;;64.25;36.38;;;10.40;79.70;;;;;;5132947;27;20019;-68
2021/01/30 18:34:42;;;;;;;63.65;34.80;;;10.30;79.80;;;;;;5133084;27;20019;-66
2021/01/30 18:37:08;;;;;;;63.50;34.80;;;10.20;79.70;;;;;;5150489;27;20023;-71
2021/01/30 18:39:33;;;;;;;64.30;34.85;;;10.10;80.20;;;;;;5131628;27;20023;-68
2021/01/30 18:42:00;;;;;;;62.72;34.58;;;10.00;80.40;;;;;;5132566;27;20051;-67
2021/01/30 18:44:25;;;;;;;66.47;36.00;;;9.90;81.40;;;;;;5115558;27;20076;-69
2021/01/30 18:46:51;;;;;;;66.90;35.83;;;9.90;85.90;;;;;;5132458;27;20031;-68
2021/01/30 18:49:17;;;;;;;66.28;33.88;;;10.00;85.40;;;;;;5132793;27;20589;-68
2021/01/30 18:51:43;;;;;;;74.45;38.50;;;10.00;89.20;;;;;;5132641;27;20027;-68
2021/01/30 18:54:09;;;;;;;70.22;36.45;;;10.10;90.10;;;;;;5115397;27;20034;-67
2021/01/30 18:56:35;;;;;;;69.53;37.67;;;10.10;83.70;;;;;;5131387;27;20020;-69
2021/01/30 18:59:01;;;;;;;71.30;37.78;;;10.10;83.30;;;;;;5131978;27;20171;-66
2021/01/30 19:01:27;;;;;;;73.03;39.00;;;10.10;81.10;;;;;;5132507;27;20486;-66
2021/01/30 19:03:53;;;;;;;86.75;42.17;;;10.00;81.70;;;;;;5123556;27;20047;-67
2021/01/30 19:06:18;;;;;;;86.35;42.22;;;10.10;82.30;;;;;;5156262;27;20027;-65
2021/01/30 19:08:44;;;;;;;81.28;41.38;;;10.00;78.50;;;;;;5139314;27;20519;-68
2021/01/30 19:11:10;;;;;;;89.10;43.10;;;9.90;78.20;;;;;;5121908;27;20035;-66
2021/01/30 19:13:36;;;;;;;80.90;41.28;;;9.80;77.60;;;;;;5139185;27;20062;-66
2021/01/30 19:16:02;;;;;;;82.00;41.10;;;9.70;78.00;;;;;;5139083;27;20075;-66
2021/01/30 19:18:27;;;;;;;81.07;41.90;;;9.60;78.20;;;;;;5139443;27;20451;-65
2021/01/30 19:20:53;;;;;;;87.47;42.92;;;9.50;78.20;;;;;;5138848;27;20065;-67
2021/01/30 19:23:19;;;;;;;86.13;42.35;;;9.50;78.30;;;;;;5138661;27;20067;-67
2021/01/30 19:25:45;;;;;;;79.90;43.13;;;9.50;77.70;;;;;;5124117;27;20035;-66
2021/01/30 19:28:11;;;;;;;90.78;44.63;;;9.40;78.00;;;;;;5101330;27;20031;-66
2021/01/30 19:30:37;;;;;;;94.68;46.00;;;9.30;78.10;;;;;;5149045;27;20031;-65
2021/01/30 19:33:04;;;;;;;83.32;42.17;;;9.20;77.90;;;;;;5130476;27;20034;-66
2021/01/30 19:35:31;;;;;;;79.68;41.65;;;9.20;78.40;;;;;;5137524;27;20240;-65
2021/01/30 19:37:58;;;;;;;81.82;40.90;;;9.10;78.50;;;;;;5128079;27;20118;-65
2021/01/30 19:40:24;;;;;;;88.72;44.80;;;9.10;78.50;;;;;;5133185;27;20034;-65
2021/01/30 19:42:50;;;;;;;72.05;39.42;;;9.00;78.90;;;;;;5135618;27;20023;-67
2021/01/30 19:45:16;;;;;;;78.00;42.22;;;9.00;78.40;;;;;;5112276;27;20118;-65
2021/01/30 19:47:42;;;;;;;82.43;43.05;;;9.00;78.90;;;;;;5126907;27;20026;-66
2021/01/30 19:50:10;;;;;;;85.90;47.03;;;9.00;78.30;;;;;;5110426;27;20026;-67
2021/01/30 19:52:36;;;;;;;109.05;61.53;;;9.00;78.10;;;;;;5129144;27;20034;-65
2021/01/30 19:55:02;;;;;;;108.80;58.10;;;9.00;77.20;;;;;;5138359;27;20026;-66
2021/01/30 19:57:28;;;;;;;129.57;67.78;;;9.00;77.60;;;;;;5155068;27;20078;-67
2021/01/30 19:59:54;;;;;;;154.32;76.15;;;9.00;77.60;;;;;;5156768;27;20023;-68
2021/01/30 20:02:20;;;;;;;148.35;79.95;;;9.00;78.30;;;;;;5155053;27;20022;-66
2021/01/30 20:04:45;;;;;;;156.45;85.45;;;9.00;77.60;;;;;;5137718;27;20043;-64
2021/01/30 20:07:11;;;;;;;182.65;86.93;;;9.00;77.50;;;;;;5137813;27;20037;-65
2021/01/30 20:09:37;;;;;;;160.48;82.72;;;9.00;77.90;;;;;;5155389;27;20050;-65
2021/01/30 20:12:04;;;;;;;162.13;78.13;;;9.00;77.60;;;;;;5138113;27;20106;-67
2021/01/30 20:14:31;;;;;;;207.05;101.05;;;8.90;78.00;;;;;;5138075;27;20038;-67
2021/01/30 20:16:57;;;;;;;194.38;99.28;;;8.90;77.60;;;;;;5153472;27;20014;-67
2021/01/30 20:19:23;;;;;;;161.93;89.13;;;8.90;77.80;;;;;;5137814;27;20026;-67
2021/01/30 20:21:49;;;;;;;161.43;86.32;;;8.90;77.30;;;;;;5137706;27;20760;-67
2021/01/30 20:24:30;;;;;;;178.82;90.70;;;8.90;77.50;;;;;;5137298;27;20122;-67
2021/01/30 20:26:56;;;;;;;167.90;90.53;;;8.90;77.50;;;;;;5137533;27;20470;-68
2021/01/30 20:29:23;;;;;;;161.93;86.18;;;8.90;77.80;;;;;;5154780;27;20025;-65
2021/01/30 20:32:04;;;;;;;148.50;80.32;;;8.90;77.30;;;;;;5138282;27;20412;-65
2021/01/30 20:34:30;;;;;;;147.40;81.75;;;8.90;77.60;;;;;;5131443;27;20483;-66
2021/01/30 20:36:56;;;;;;;149.60;79.90;;;8.80;77.70;;;;;;5154985;27;20047;-65
2021/01/30 20:39:21;;;;;;;156.00;85.38;;;8.80;77.50;;;;;;5120264;27;20026;-65
2021/01/30 20:41:47;;;;;;;159.80;90.28;;;8.70;77.80;;;;;;5135283;27;20034;-66
2021/01/30 20:44:13;;;;;;;157.27;89.50;;;8.70;77.60;;;;;;5127380;27;20023;-66
2021/01/30 20:46:39;;;;;;;168.45;94.05;;;8.70;77.60;;;;;;5143825;27;20034;-65
2021/01/30 20:49:05;;;;;;;166.05;93.10;;;8.70;77.80;;;;;;5141551;27;20045;-69
2021/01/30 20:51:30;;;;;;;151.55;86.57;;;8.60;77.50;;;;;;5149967;27;20033;-66
2021/01/30 20:53:56;;;;;;;151.95;84.47;;;8.60;78.90;;;;;;5137172;27;20029;-65
2021/01/30 20:56:25;;;;;;;161.02;89.28;;;8.60;79.70;;;;;;5128575;27;20019;-66
2021/01/30 20:58:51;;;;;;;148.27;82.85;;;8.50;80.60;;;;;;5132147;27;20023;-66
2021/01/30 21:01:18;;;;;;;161.40;88.82;;;8.50;80.30;;;;;;5136625;27;20023;-67
2021/01/30 21:03:43;;;;;;;156.88;88.32;;;8.40;80.70;;;;;;5136748;27;20056;-66
2021/01/30 21:06:10;;;;;;;156.68;87.57;;;8.40;81.80;;;;;;5136877;27;20105;-66
2021/01/30 21:08:36;;;;;;;165.65;92.43;;;8.30;82.50;;;;;;5136861;27;20025;-67
2021/01/30 21:11:01;;;;;;;159.02;90.43;;;8.20;84.00;;;;;;5136737;27;20093;-68
2021/01/30 21:13:27;;;;;;;180.52;96.75;;;8.10;84.50;;;;;;5135959;27;20545;-67
2021/01/30 21:15:54;;;;;;;175.45;95.88;;;8.10;84.60;;;;;;5136836;27;20446;-67
2021/01/30 21:18:57;;;;;;;181.07;99.53;;;8.10;84.20;;;;;;5136808;27;20114;-67
2021/01/30 21:21:23;;;;;;;187.32;98.28;;;8.00;84.40;;;;;;5155220;27;20023;-68
2021/01/30 21:23:49;;;;;;;198.10;102.10;;;8.00;84.40;;;;;;5119078;27;20031;-69
2021/01/30 21:26:19;;;;;;;200.77;104.63;;;7.90;84.10;;;;;;5153776;27;20065;-68
2021/01/30 21:28:45;;;;;;;205.75;102.70;;;7.90;82.30;;;;;;5119111;27;20030;-67
2021/01/30 21:31:11;;;;;;;166.05;86.03;;;7.90;81.70;;;;;;5153755;27;20027;-68
2021/01/30 21:33:36;;;;;;;209.75;100.68;;;7.90;81.00;;;;;;5153392;27;20023;-70
2021/01/30 21:36:02;;;;;;;224.35;115.95;;;7.80;80.50;;;;;;5136530;27;20054;-70
2021/01/30 21:38:28;;;;;;;206.95;108.13;;;7.90;81.20;;;;;;5136439;27;20019;-70
2021/01/30 21:40:54;;;;;;;213.63;100.38;;;7.90;80.70;;;;;;5136439;27;20031;-68
2021/01/30 21:43:20;;;;;;;206.85;102.53;;;7.90;80.60;;;;;;5136404;27;20026;-65
2021/01/30 21:45:45;;;;;;;218.52;108.70;;;7.80;82.30;;;;;;5135988;27;20042;-67
2021/01/30 21:48:11;;;;;;;222.25;111.63;;;7.70;81.70;;;;;;5136189;27;20027;-66
2021/01/30 21:50:37;;;;;;;219.50;115.85;;;7.70;82.90;;;;;;5136445;27;20074;-66
2021/01/30 21:53:03;;;;;;;208.75;112.00;;;7.80;82.70;;;;;;5136255;27;20105;-68
2021/01/30 21:55:28;;;;;;;211.43;112.43;;;7.80;83.10;;;;;;5119001;27;20019;-65
2021/01/30 21:57:57;;;;;;;229.25;122.30;;;7.80;84.40;;;;;;5136211;27;20019;-65
2021/01/30 22:00:23;;;;;;;269.92;139.57;;;7.80;85.80;;;;;;5135966;27;20024;-66
2021/01/30 22:02:49;;;;;;;257.35;134.15;;;7.90;86.10;;;;;;5152922;27;20541;-65
2021/01/30 22:05:14;;;;;;;308.30;158.18;;;7.90;85.20;;;;;;5135848;27;20050;-68
2021/01/30 22:07:40;;;;;;;252.57;132.98;;;8.00;84.90;;;;;;5153224;27;20409;-65
2021/01/30 22:10:07;;;;;;;280.13;149.60;;;8.00;85.30;;;;;;5136153;27;20030;-65
2021/01/30 22:12:32;;;;;;;301.35;158.63;;;8.10;86.00;;;;;;5154450;27;20023;-65
2021/01/30 22:14:59;;;;;;;344.40;184.68;;;8.00;86.60;;;;;;5118901;27;20033;-65
2021/01/30 22:17:26;;;;;;;352.10;185.10;;;8.00;85.80;;;;;;5136150;27;20447;-68
2021/01/30 22:19:51;;;;;;;394.98;211.27;;;8.10;85.30;;;;;;5118806;27;20026;-66
2021/01/30 22:22:17;;;;;;;380.48;202.95;;;8.10;84.40;;;;;;5118557;27;20027;-65
2021/01/30 22:24:44;;;;;;;370.02;203.90;;;8.00;83.90;;;;;;5118623;27;20084;-65
2021/01/30 22:27:10;;;;;;;360.83;197.63;;;8.00;84.50;;;;;;5135930;27;20023;-66
2021/01/30 22:29:36;;;;;;;354.00;188.50;;;8.10;84.70;;;;;;5136028;27;20421;-64
2021/01/30 22:32:01;;;;;;;407.05;211.98;;;8.10;84.30;;;;;;5153030;27;20034;-65
2021/01/30 22:34:27;;;;;;;368.38;187.15;;;8.10;83.80;;;;;;5153155;27;20059;-65
2021/01/30 22:36:53;;;;;;;355.42;181.98;;;8.10;83.30;;;;;;5118722;27;20526;-66
2021/01/30 22:39:19;;;;;;;361.33;180.88;;;8.00;84.30;;;;;;5119098;27;20029;-65
2021/01/30 22:41:45;;;;;;;391.40;200.30;;;8.00;84.40;;;;;;5139787;27;20035;-66
2021/01/30 22:44:10;;;;;;;388.17;199.13;;;8.10;84.40;;;;;;5157024;27;20054;-66
2021/01/30 22:46:36;;;;;;;327.05;159.80;;;8.20;83.80;;;;;;5157090;27;20066;-65
2021/01/30 22:49:02;;;;;;;374.48;168.35;;;8.30;81.80;;;;;;5122026;27;20027;-65
2021/01/30 22:51:28;;;;;;;389.90;179.75;;;8.40;82.30;;;;;;5122311;27;20030;-66
2021/01/30 22:53:53;;;;;;;324.17;140.88;;;8.40;83.10;;;;;;5139245;27;20061;-66
2021/01/30 22:56:19;;;;;;;205.82;92.97;;;8.40;83.60;;;;;;5122215;27;20030;-66
2021/01/30 22:58:45;;;;;;;242.70;102.20;;;8.40;81.50;;;;;;5139644;27;20463;-65
2021/01/30 23:01:11;;;;;;;211.35;96.47;;;8.50;83.90;;;;;;5139515;27;20038;-65
2021/01/30 23:03:37;;;;;;;159.93;74.15;;;8.50;81.10;;;;;;5138952;27;20411;-66
2021/01/30 23:06:03;;;;;;;154.00;71.80;;;8.40;81.10;;;;;;5139447;27;20027;-64
2021/01/30 23:08:29;;;;;;;167.65;76.85;;;8.50;82.60;;;;;;5139287;27;20018;-64
2021/01/30 23:10:55;;;;;;;155.85;74.38;;;8.50;81.10;;;;;;5139344;27;20030;-64
2021/01/30 23:13:21;;;;;;;169.95;74.13;;;8.50;80.10;;;;;;5138839;27;20037;-64
2021/01/30 23:15:47;;;;;;;152.55;68.15;;;8.50;79.70;;;;;;5138940;27;20023;-65
2021/01/30 23:18:14;;;;;;;114.85;56.28;;;8.50;79.50;;;;;;5139123;27;20481;-64
2021/01/30 23:20:40;;;;;;;113.55;55.47;;;8.50;79.20;;;;;;5139197;27;20046;-65
2021/01/30 23:23:06;;;;;;;193.10;86.05;;;8.50;80.10;;;;;;5139002;27;20455;-66
2021/01/30 23:25:34;;;;;;;192.68;86.80;;;8.50;81.30;;;;;;5138956;27;20030;-65
2021/01/30 23:28:02;;;;;;;176.02;77.57;;;8.40;80.70;;;;;;5121908;27;20054;-65
2021/01/30 23:30:34;;;;;;;147.88;67.68;;;8.40;80.30;;;;;;5156129;27;20122;-65
2021/01/30 23:33:00;;;;;;;178.05;79.32;;;8.40;80.30;;;;;;5139822;27;20370;-65
2021/01/30 23:35:26;;;;;;;165.52;81.32;;;8.30;82.30;;;;;;5121578;27;20022;-65
2021/01/30 23:37:52;;;;;;;182.65;84.35;;;8.30;81.40;;;;;;5138763;27;20411;-64
2021/01/30 23:40:22;;;;;;;183.48;86.43;;;8.20;82.90;;;;;;5156258;27;20035;-64
2021/01/30 23:42:48;;;;;;;163.23;76.07;;;8.10;83.70;;;;;;5138758;27;20030;-64
2021/01/30 23:45:15;;;;;;;129.18;62.70;;;8.00;82.30;;;;;;5138660;27;20026;-64
2021/01/30 23:47:41;;;;;;;143.98;69.53;;;8.00;80.90;;;;;;5155796;27;20050;-65
2021/01/30 23:50:08;;;;;;;168.57;80.03;;;8.00;81.30;;;;;;5155462;27;20019;-64
2021/01/30 23:52:33;;;;;;;163.57;77.60;;;8.00;83.00;;;;;;5121252;27;20034;-64
2021/01/30 23:54:59;;;;;;;149.38;73.53;;;7.90;83.90;;;;;;5121135;27;20022;-64
2021/01/30 23:57:25;;;;;;;155.80;73.68;;;7.80;83.80;;;;;;5138092;27;20036;-65
2021/01/30 23:59:51;;;;;;;160.23;72.82;;;7.70;83.90;;;;;;5138379;27;20490;-65
